Time;durP1;ratioP1;P1;durP2;ratioP2;P2;SDS_P1;SDS_P2;PMS_P1;PMS_P2;Temp;Humidity;BMP_temperature;BMP_pressure;BME280_temperature;BME280_humidity;BME280_pressure;Samples;Min_cycle;Max_cycle;Signal;HPM_P1;HPM_P2
2023/03/08 00:54:25;;;;;;;2.10;1.15;;;18.20;38.80;;;;;;6313234;22;20204;-88
2023/03/08 01:27:47;;;;;;;6.35;1.10;;;18.10;38.90;;;;;;6121172;23;20152;-87
2023/03/08 01:33:34;;;;;;;4.03;1.10;;;18.10;38.90;;;;;;5969325;24;20168;-87
2023/03/08 01:37:02;;;;;;;;;;;;;;;;;;;;;
2023/03/08 01:46:57;;;;;;;2.20;1.20;;;18.10;38.90;;;;;;5847801;24;20178;-87
2023/03/08 01:50:04;;;;;;;2.20;1.00;;;18.10;39.00;;;;;;5737980;25;20166;-87
2023/03/08 01:52:58;;;;;;;5.20;1.20;;;18.10;39.00;;;;;;5734546;25;20173;-87
2023/03/08 01:56:20;;;;;;;4.60;1.30;;;18.10;39.00;;;;;;5693255;25;20197;-87
2023/03/08 02:00:09;;;;;;;;;;;;;;;;;;;;;
2023/03/08 02:05:48;;;;;;;4.88;1.63;;;18.10;39.00;;;;;;5687690;25;20174;-87
2023/03/08 02:12:19;;;;;;;3.25;0.95;;;18.00;39.00;;;;;;5738747;25;20213;-87
2023/03/08 02:15:27;;;;;;;1.75;1.20;;;18.00;39.00;;;;;;5869477;24;20205;-88
2023/03/08 02:26:15;;;;;;;4.97;1.08;;;18.00;39.00;;;;;;5844789;24;20292;-87
2023/03/08 02:29:39;;;;;;;5.03;1.30;;;18.00;39.10;;;;;;5898815;24;20178;-87
2023/03/08 02:36:43;;;;;;;3.20;1.38;;;18.00;39.00;;;;;;5925424;24;20204;-87
2023/03/08 02:40:14;;;;;;;;;;;;;;;;;;;;;
2023/03/08 02:50:35;;;;;;;3.35;0.80;;;18.00;39.00;;;;;;6091823;23;20161;-87
2023/03/08 02:53:18;;;;;;;3.88;1.00;;;18.00;39.10;;;;;;6035720;23;20170;-87
2023/03/08 02:56:03;;;;;;;4.05;1.20;;;18.00;39.00;;;;;;5928548;24;20646;-87
2023/03/08 02:58:59;;;;;;;1.95;0.95;;;18.00;39.10;;;;;;5924592;24;20268;-87
2023/03/08 03:01:59;;;;;;;1.90;1.00;;;18.00;39.10;;;;;;5924880;24;20231;-87
2023/03/08 03:05:36;;;;;;;;;;;;;;;;;;;;;
2023/03/08 03:08:14;;;;;;;1.90;0.90;;;18.00;39.20;;;;;;5844444;24;20229;-87
2023/03/08 03:31:24;;;;;;;3.20;1.00;;;17.90;39.10;;;;;;5897451;24;20200;-87
2023/03/08 03:37:54;;;;;;;1.35;1.00;;;18.00;39.20;;;;;;5927047;24;20199;-87
2023/03/08 03:47:44;;;;;;;1.88;1.10;;;17.90;39.10;;;;;;5841777;24;20162;-86
2023/03/08 03:50:44;;;;;;;;;;;;;;;;;;;;;
2023/03/08 03:53:26;;;;;;;1.65;0.98;;;17.90;39.10;;;;;;5797708;24;20148;-87
2023/03/08 03:56:35;;;;;;;2.83;1.20;;;18.00;39.20;;;;;;5769372;24;20196;-87
2023/03/08 03:59:47;;;;;;;2.42;1.52;;;17.90;39.20;;;;;;5806841;24;20140;-87
2023/03/08 04:02:51;;;;;;;1.90;1.40;;;17.90;39.20;;;;;;5789297;24;20168;-87
2023/03/08 04:09:27;;;;;;;;;;;;;;;;;;;;;
2023/03/08 04:12:27;;;;;;;2.85;1.00;;;17.90;39.30;;;;;;5695801;25;20170;-87
2023/03/08 04:15:36;;;;;;;1.90;1.02;;;17.90;39.10;;;;;;5706459;25;20206;-86
2023/03/08 04:18:36;;;;;;;;;;;;;;;;;;;;;
2023/03/08 04:21:44;;;;;;;1.52;0.90;;;17.90;39.20;;;;;;5677170;25;20160;-86
2023/03/08 04:24:46;;;;;;;2.40;1.02;;;17.90;39.20;;;;;;5698484;25;20150;-87
2023/03/08 04:28:29;;;;;;;;;;;;;;;;;;;;;
2023/03/08 04:30:45;;;;;;;4.10;1.40;;;17.80;39.20;;;;;;5835481;24;20200;-87
2023/03/08 04:37:04;;;;;;;2.88;1.00;;;17.80;39.30;;;;;;5832805;24;20191;-87
2023/03/08 04:40:08;;;;;;;4.03;1.00;;;17.80;39.10;;;;;;5763620;24;20162;-87
2023/03/08 04:46:57;;;;;;;2.30;1.33;;;17.90;39.30;;;;;;5771949;24;20166;-87
2023/03/08 04:53:40;;;;;;;;;;;;;;;;;;;;;
2023/03/08 04:56:59;;;;;;;1.40;1.00;;;17.80;39.10;;;;;;5763449;25;20193;-87
2023/03/08 04:59:51;;;;;;;5.18;1.15;;;17.90;39.10;;;;;;5764090;24;20157;-86
2023/03/08 05:03:44;;;;;;;4.78;1.20;;;17.90;39.30;;;;;;5790030;24;20169;-86
2023/03/08 05:06:54;;;;;;;1.45;0.82;;;17.80;39.30;;;;;;5820777;24;20164;-86
2023/03/08 05:09:56;;;;;;;;;;;;;;;;;;;;;
2023/03/08 05:13:07;;;;;;;;;;;;;;;;;;;;;
2023/03/08 05:19:57;;;;;;;3.42;1.20;;;17.80;39.30;;;;;;5813996;24;20193;-86
2023/03/08 05:22:39;;;;;;;2.72;1.10;;;17.80;39.30;;;;;;5904588;24;20169;-87
2023/03/08 05:33:12;;;;;;;2.47;1.00;;;17.80;39.30;;;;;;5838268;24;20147;-86
2023/03/08 05:37:00;;;;;;;3.35;1.10;;;17.80;39.20;;;;;;5815849;24;20188;-86
2023/03/08 05:43:00;;;;;;;1.98;1.05;;;17.80;39.20;;;;;;5816518;24;20163;-86
2023/03/08 05:45:48;;;;;;;2.70;1.00;;;17.90;39.30;;;;;;5835545;24;20154;-87
2023/03/08 05:48:52;;;;;;;2.80;1.08;;;17.80;39.30;;;;;;5762949;25;20157;-87
2023/03/08 05:52:18;;;;;;;2.35;1.20;;;17.80;39.20;;;;;;5661010;25;20166;-87
2023/03/08 06:01:46;;;;;;;2.83;1.00;;;17.80;39.30;;;;;;5578715;25;20175;-87
2023/03/08 06:04:47;;;;;;;2.17;0.93;;;17.80;39.90;;;;;;5595150;25;20167;-86
2023/03/08 06:08:12;;;;;;;1.00;0.90;;;17.80;39.30;;;;;;5613323;25;20166;-86
2023/03/08 06:11:10;;;;;;;2.38;1.10;;;17.80;39.40;;;;;;5543749;25;20162;-87
2023/03/08 06:14:23;;;;;;;1.83;1.00;;;17.80;39.30;;;;;;5512735;26;20168;-87
2023/03/08 06:20:31;;;;;;;1.10;1.00;;;17.80;39.40;;;;;;5608114;25;20216;-87
2023/03/08 06:23:06;;;;;;;3.25;1.20;;;17.70;39.30;;;;;;5585295;25;20230;-87
2023/03/08 06:25:47;;;;;;;2.10;1.15;;;17.70;39.30;;;;;;5565083;25;20232;-86
2023/03/08 06:28:29;;;;;;;3.70;1.17;;;17.70;39.40;;;;;;5584913;25;20162;-87
2023/03/08 06:31:19;;;;;;;4.45;1.13;;;17.80;39.30;;;;;;5638555;25;20160;-87
2023/03/08 06:34:03;;;;;;;1.58;1.00;;;17.70;39.20;;;;;;5679905;25;20192;-87
2023/03/08 06:36:51;;;;;;;2.15;0.90;;;17.70;39.30;;;;;;5709766;25;20191;-87
2023/03/08 06:39:29;;;;;;;2.25;1.10;;;17.80;39.40;;;;;;5704856;25;20183;-88
2023/03/08 06:42:15;;;;;;;2.45;1.10;;;17.70;39.40;;;;;;5706425;25;20167;-87
2023/03/08 06:45:06;;;;;;;1.92;1.00;;;17.70;39.40;;;;;;5667648;25;20215;-86
2023/03/08 06:47:42;;;;;;;1.90;0.85;;;17.80;39.40;;;;;;5678149;25;20276;-87
2023/03/08 06:51:37;;;;;;;2.90;1.00;;;17.70;39.30;;;;;;5685498;25;20173;-86
2023/03/08 06:54:20;;;;;;;1.63;0.93;;;17.70;39.40;;;;;;5685413;25;20173;-87
2023/03/08 06:57:14;;;;;;;2.25;1.05;;;17.70;39.40;;;;;;5651333;25;20171;-87
2023/03/08 07:00:33;;;;;;;2.83;1.02;;;17.70;39.30;;;;;;5712423;25;20162;-86
2023/03/08 07:03:14;;;;;;;1.92;0.90;;;17.70;39.30;;;;;;5693422;25;20167;-86
2023/03/08 07:08:51;;;;;;;1.63;0.90;;;17.70;39.40;;;;;;5575569;25;20236;-87
2023/03/08 07:11:44;;;;;;;2.35;1.10;;;17.70;39.40;;;;;;5586402;25;20304;-87
2023/03/08 07:14:33;;;;;;;2.35;1.02;;;17.70;39.40;;;;;;5635477;25;20225;-86
2023/03/08 07:45:24;;;;;;;1.50;0.98;;;18.00;38.90;;;;;;6221439;22;20249;-88
2023/03/08 07:48:12;;;;;;;1.77;1.02;;;18.10;38.70;;;;;;6197508;23;20141;-87
2023/03/08 07:50:49;;;;;;;0.90;0.68;;;18.10;38.60;;;;;;6225989;23;20180;-86
2023/03/08 07:57:32;;;;;;;2.90;1.17;;;18.20;38.40;;;;;;6046239;23;20169;-86
2023/03/08 08:00:44;;;;;;;1.17;1.05;;;18.20;38.40;;;;;;5932796;24;20157;-89
2023/03/08 08:03:27;;;;;;;1.02;0.73;;;18.30;38.40;;;;;;5878431;24;20162;-81
2023/03/08 08:09:17;;;;;;;2.55;0.88;;;18.30;38.50;;;;;;5906637;24;20178;-84
2023/03/08 08:11:43;;;;;;;1.80;0.90;;;18.30;38.40;;;;;;5900059;24;20260;-83
2023/03/08 08:14:13;;;;;;;3.03;0.90;;;18.30;38.50;;;;;;5880841;24;20166;-85
2023/03/08 08:16:39;;;;;;;1.75;0.88;;;18.40;38.70;;;;;;5905573;24;20184;-82
2023/03/08 08:19:30;;;;;;;0.90;0.80;;;18.30;38.70;;;;;;5907503;24;20161;-84
2023/03/08 08:21:59;;;;;;;1.23;0.68;;;18.30;38.80;;;;;;5887177;24;20142;-84
2023/03/08 08:24:28;;;;;;;2.30;1.00;;;18.30;38.70;;;;;;5870603;24;20142;-85
2023/03/08 08:27:01;;;;;;;0.90;0.85;;;18.30;38.70;;;;;;5905650;24;20158;-84
2023/03/08 08:29:31;;;;;;;3.08;0.80;;;18.30;39.50;;;;;;5916244;24;20157;-85
2023/03/08 08:31:58;;;;;;;1.48;0.75;;;18.30;38.60;;;;;;5977013;23;20135;-84
2023/03/08 08:34:28;;;;;;;0.95;0.73;;;18.30;38.70;;;;;;6158465;23;20146;-84
2023/03/08 08:37:05;;;;;;;2.65;0.80;;;18.40;38.70;;;;;;6177539;23;20212;-83
2023/03/08 08:39:46;;;;;;;2.97;0.80;;;18.40;38.90;;;;;;6076063;23;20161;-84
2023/03/08 08:42:36;;;;;;;1.05;0.70;;;18.40;38.90;;;;;;6073212;23;20156;-82
2023/03/08 08:45:27;;;;;;;2.42;0.77;;;18.40;38.80;;;;;;6025010;23;20177;-84
2023/03/08 08:48:41;;;;;;;0.70;0.70;;;18.40;38.80;;;;;;6015355;23;20163;-85
2023/03/08 08:51:10;;;;;;;1.08;0.80;;;18.40;38.90;;;;;;5986995;23;20159;-86
2023/03/08 08:53:53;;;;;;;0.93;0.68;;;18.50;39.00;;;;;;5941847;24;20163;-86
2023/03/08 08:56:29;;;;;;;1.58;0.70;;;18.50;38.50;;;;;;5899953;24;20188;-86
2023/03/08 08:59:07;;;;;;;0.60;0.60;;;18.60;39.30;;;;;;5941482;24;20163;-85
2023/03/08 09:01:44;;;;;;;0.70;0.60;;;18.60;38.50;;;;;;5944127;24;20201;-85
2023/03/08 09:04:37;;;;;;;1.25;0.70;;;18.70;38.40;;;;;;5940946;24;20251;-85
2023/03/08 09:07:08;;;;;;;0.95;0.70;;;18.70;38.40;;;;;;5923514;24;20160;-84
2023/03/08 09:09:35;;;;;;;1.13;0.55;;;18.80;38.50;;;;;;5948038;23;20158;-85
2023/03/08 09:12:03;;;;;;;1.73;0.75;;;18.70;38.70;;;;;;6042078;23;20169;-86
2023/03/08 09:14:36;;;;;;;2.80;1.10;;;18.70;38.50;;;;;;6076916;23;20180;-85
2023/03/08 09:17:07;;;;;;;1.63;0.80;;;18.70;38.70;;;;;;6076588;23;20146;-86
2023/03/08 09:19:35;;;;;;;0.98;0.57;;;18.70;38.90;;;;;;6053352;23;20165;-86
2023/03/08 09:22:13;;;;;;;1.55;0.70;;;18.70;38.80;;;;;;6024264;23;20150;-86
2023/03/08 09:24:58;;;;;;;0.75;0.52;;;18.80;39.10;;;;;;6029124;23;20233;-85
2023/03/08 09:27:28;;;;;;;0.65;0.57;;;18.80;38.70;;;;;;5994956;23;20226;-85
2023/03/08 09:29:54;;;;;;;1.17;0.70;;;18.90;39.20;;;;;;5996180;23;20155;-85
2023/03/08 09:32:30;;;;;;;1.88;0.60;;;18.80;39.10;;;;;;5996235;23;20147;-87
2023/03/08 09:35:10;;;;;;;2.47;0.88;;;18.70;39.30;;;;;;5923816;24;20275;-85
2023/03/08 09:37:39;;;;;;;2.00;0.70;;;18.60;39.50;;;;;;5935661;24;20153;-86
2023/03/08 09:40:34;;;;;;;2.33;0.60;;;18.70;39.40;;;;;;5936610;24;20231;-86
2023/03/08 09:43:08;;;;;;;1.42;0.68;;;18.70;39.50;;;;;;5935376;24;20668;-86
2023/03/08 09:45:41;;;;;;;1.70;0.73;;;18.70;40.00;;;;;;5889151;24;20184;-88
2023/03/08 11:09:35;;;;;;;1.00;0.50;;;18.80;39.90;;;;;;6308212;22;20856;-84
2023/03/08 11:12:29;;;;;;;3.55;0.70;;;18.80;39.70;;;;;;6176590;23;20257;-85
2023/03/08 11:15:49;;;;;;;3.60;0.85;;;18.80;39.70;;;;;;6176129;23;20178;-85
2023/03/08 11:18:32;;;;;;;6.40;1.05;;;18.80;39.50;;;;;;6025617;23;20634;-85
2023/03/08 11:21:30;;;;;;;4.03;1.02;;;18.80;39.50;;;;;;6020739;23;20151;-86
2023/03/08 11:24:20;;;;;;;4.25;0.90;;;18.80;39.50;;;;;;5930890;24;20206;-84
2023/03/08 11:27:05;;;;;;;7.45;0.70;;;18.80;39.50;;;;;;5888454;24;20157;-85
2023/03/08 11:30:14;;;;;;;5.40;0.98;;;18.70;39.50;;;;;;5887443;24;20153;-87
2023/03/08 11:33:19;;;;;;;9.52;1.30;;;18.70;39.40;;;;;;5914856;24;20224;-89
2023/03/08 11:36:46;;;;;;;10.25;1.13;;;18.80;39.40;;;;;;5837014;24;20197;-88
2023/03/08 11:39:32;;;;;;;6.82;0.90;;;18.90;39.20;;;;;;5824975;24;20163;-86
2023/03/08 11:42:09;;;;;;;9.55;1.30;;;18.90;39.20;;;;;;5824932;24;20246;-88
2023/03/08 11:44:55;;;;;;;18.65;1.58;;;18.80;39.10;;;;;;5799506;24;20166;-88
2023/03/08 11:47:33;;;;;;;9.77;1.30;;;18.80;39.00;;;;;;5823370;24;20217;-87
2023/03/08 11:50:22;;;;;;;8.15;1.40;;;18.70;38.90;;;;;;5888839;24;20217;-85
2023/03/08 11:53:05;;;;;;;11.52;1.00;;;18.80;39.00;;;;;;5909110;24;20157;-87
2023/03/08 11:55:46;;;;;;;12.05;1.60;;;18.90;38.80;;;;;;5906329;24;20204;-87
2023/03/08 11:58:32;;;;;;;12.43;1.52;;;18.90;38.80;;;;;;5872160;24;20166;-87
2023/03/08 12:01:06;;;;;;;10.73;1.27;;;19.00;38.70;;;;;;5991999;24;20595;-90
2023/03/08 12:03:39;;;;;;;10.68;1.13;;;18.90;38.70;;;;;;5994288;23;20174;-89
2023/03/08 12:06:25;;;;;;;7.70;1.30;;;18.90;38.50;;;;;;5943067;24;20178;-87
2023/03/08 12:09:01;;;;;;;7.57;1.20;;;19.00;38.40;;;;;;6022011;23;20237;-86
2023/03/08 12:12:22;;;;;;;17.13;1.60;;;19.00;38.30;;;;;;6020760;23;20761;-87
2023/03/08 13:09:24;;;;;;;22.63;2.00;;;18.90;38.70;;;;;;6303641;22;20201;-84
2023/03/08 13:12:01;;;;;;;28.00;2.45;;;18.90;38.80;;;;;;6312592;22;20124;-84
2023/03/08 13:15:22;;;;;;;;;;;;;;;;;;;;;
2023/03/08 13:18:45;;;;;;;20.42;2.13;;;18.90;38.70;;;;;;6137086;23;20191;-87
2023/03/08 13:21:55;;;;;;;;;;;;;;;;;;;;;
2023/03/08 13:24:45;;;;;;;29.15;3.42;;;18.90;38.50;;;;;;6051346;23;20224;-84
2023/03/08 13:27:36;;;;;;;21.73;2.30;;;18.90;38.70;;;;;;6052815;23;20247;-85
2023/03/08 13:30:23;;;;;;;20.27;1.58;;;18.90;38.70;;;;;;5990191;23;20165;-87
2023/03/08 13:33:12;;;;;;;18.25;1.85;;;19.00;38.70;;;;;;5990766;23;20151;-85
2023/03/08 13:35:37;;;;;;;14.85;1.60;;;18.90;38.70;;;;;;5988858;23;20183;-84
2023/03/08 13:38:06;;;;;;;24.30;2.17;;;19.00;38.50;;;;;;5988950;23;20558;-86
2023/03/08 13:40:31;;;;;;;20.85;2.22;;;19.00;38.80;;;;;;5964025;23;20191;-84
2023/03/08 13:43:04;;;;;;;19.95;2.15;;;18.90;38.90;;;;;;5988295;23;20154;-84
2023/03/08 13:46:33;;;;;;;14.88;2.03;;;18.90;39.40;;;;;;5994809;23;20165;-84
2023/03/08 13:48:44;;;;;;;27.45;2.42;;;19.00;38.80;;;;;;6065087;23;20187;-85
2023/03/08 13:51:09;;;;;;;16.83;2.00;;;18.90;38.80;;;;;;5966268;24;20158;-83
2023/03/08 13:53:44;;;;;;;16.05;2.20;;;18.90;38.60;;;;;;5986662;24;20182;-84
2023/03/08 13:56:22;;;;;;;20.65;2.15;;;19.00;38.60;;;;;;5978528;23;20208;-85
2023/03/08 13:58:57;;;;;;;20.88;1.88;;;18.90;38.60;;;;;;6073522;23;20632;-85
2023/03/08 14:01:30;;;;;;;15.77;1.80;;;18.90;38.40;;;;;;6110906;23;20206;-84
2023/03/08 15:29:19;;;;;;;5.53;0.95;;;19.00;37.20;;;;;;6326099;22;20243;-86
2023/03/08 16:05:27;;;;;;;7.32;1.00;;;19.10;36.70;;;;;;6290685;22;20226;-85
2023/03/08 16:07:59;;;;;;;3.17;0.95;;;19.10;37.20;;;;;;6247855;22;20136;-87
2023/03/08 16:10:44;;;;;;;4.10;1.30;;;19.00;36.50;;;;;;6251928;22;20149;-85
2023/03/08 16:19:34;;;;;;;2.75;0.90;;;19.00;36.40;;;;;;6270505;22;20229;-88
2023/03/08 16:26:00;;;;;;;1.27;0.65;;;19.00;36.30;;;;;;6084737;23;20246;-88
2023/03/08 16:29:01;;;;;;;2.53;0.80;;;19.10;36.10;;;;;;6058277;23;20164;-87
2023/03/08 16:32:20;;;;;;;;;;;;;;;;;;;;;
2023/03/08 17:01:18;;;;;;;7.07;0.93;;;19.20;36.10;;;;;;6284410;22;20631;-88
2023/03/08 17:03:57;;;;;;;4.05;0.73;;;19.10;36.10;;;;;;6211323;22;20144;-91
2023/03/08 17:07:17;;;;;;;3.55;1.02;;;19.10;36.70;;;;;;6237485;22;20158;-85
2023/03/08 17:13:56;;;;;;;;;;;;;;;;;;;;;
2023/03/08 17:16:34;;;;;;;2.55;0.90;;;19.10;37.20;;;;;;5998681;24;20182;-87
2023/03/08 17:50:57;;;;;;;7.60;1.38;;;19.00;37.40;;;;;;6081739;23;20215;-86
2023/03/08 17:54:14;;;;;;;;;;;;;;;;;;;;;
2023/03/08 17:57:21;;;;;;;12.20;1.70;;;19.10;37.50;;;;;;6016047;23;20208;-87
2023/03/08 18:00:14;;;;;;;;;;;;;;;;;;;;;
2023/03/08 18:03:47;;;;;;;7.60;1.35;;;19.10;37.90;;;;;;5893187;24;20207;-86
2023/03/08 18:07:54;;;;;;;;;;;;;;;;;;;;;
2023/03/08 18:10:25;;;;;;;7.28;1.33;;;19.10;37.80;;;;;;5882531;24;20207;-87
2023/03/08 18:13:04;;;;;;;7.05;1.42;;;19.10;37.80;;;;;;5859148;24;20169;-88
2023/03/08 18:22:45;;;;;;;9.55;1.85;;;19.20;38.20;;;;;;5799244;24;20441;-87
2023/03/08 18:25:20;;;;;;;7.78;1.50;;;19.20;38.20;;;;;;5772074;24;20164;-87
2023/03/08 18:59:35;;;;;;;6.80;1.20;;;19.10;38.80;;;;;;6093733;23;20166;-86
2023/03/08 19:02:01;;;;;;;4.93;1.40;;;19.10;38.50;;;;;;6096392;23;20215;-87
2023/03/08 19:04:29;;;;;;;14.60;1.70;;;19.20;38.60;;;;;;6197354;23;20157;-88
2023/03/08 19:06:56;;;;;;;7.38;1.35;;;19.10;38.50;;;;;;6201830;23;20165;-86
2023/03/08 19:09:22;;;;;;;11.45;1.33;;;19.10;38.60;;;;;;6200888;23;20149;-85
2023/03/08 19:12:03;;;;;;;3.38;0.98;;;19.00;38.40;;;;;;6199307;23;20168;-86
2023/03/08 19:14:34;;;;;;;7.88;1.17;;;19.10;38.30;;;;;;6167279;23;20218;-86
2023/03/08 19:17:16;;;;;;;7.70;1.55;;;19.00;38.20;;;;;;6118766;23;20187;-87
2023/03/08 19:19:46;;;;;;;5.32;1.50;;;19.10;37.90;;;;;;6119137;23;20150;-85
2023/03/08 19:22:15;;;;;;;6.72;1.50;;;19.00;37.80;;;;;;6116601;23;20152;-86
2023/03/08 19:24:47;;;;;;;7.10;1.20;;;19.10;37.90;;;;;;6113593;23;20147;-89
2023/03/08 19:27:20;;;;;;;16.67;1.55;;;19.10;37.90;;;;;;6053408;23;20616;-86
2023/03/08 19:30:01;;;;;;;9.52;1.67;;;19.00;38.00;;;;;;6054942;23;20149;-86
2023/03/08 19:32:48;;;;;;;4.78;1.25;;;19.10;38.10;;;;;;6022723;23;20160;-85
2023/03/08 19:35:15;;;;;;;10.38;1.92;;;19.00;38.00;;;;;;6060164;23;20176;-86
2023/03/08 19:37:51;;;;;;;6.80;1.30;;;19.00;38.20;;;;;;6084288;23;20153;-85
2023/03/08 19:40:21;;;;;;;9.18;1.48;;;19.10;38.10;;;;;;6090142;23;20598;-86
2023/03/08 19:42:50;;;;;;;6.57;1.27;;;19.00;37.60;;;;;;6035491;23;20180;-86
2023/03/08 19:45:26;;;;;;;8.55;1.38;;;19.00;37.40;;;;;;6055140;23;20163;-86
2023/03/08 19:47:54;;;;;;;8.73;1.60;;;19.10;37.70;;;;;;6112318;23;20608;-86
2023/03/08 19:50:32;;;;;;;4.80;1.30;;;19.00;37.50;;;;;;6033874;23;20162;-87
2023/03/08 19:53:03;;;;;;;4.80;1.17;;;19.00;37.40;;;;;;6034028;23;20154;-86
2023/03/08 19:55:38;;;;;;;9.88;1.50;;;19.00;37.30;;;;;;6047420;23;20189;-88
2023/03/08 19:58:25;;;;;;;2.10;1.10;;;19.00;37.10;;;;;;5984291;24;20182;-87
2023/03/08 20:01:01;;;;;;;6.90;1.42;;;19.00;37.10;;;;;;5902273;24;20156;-85
2023/03/08 20:03:29;;;;;;;7.90;1.50;;;19.00;36.90;;;;;;5939348;24;20191;-86
2023/03/08 20:05:59;;;;;;;4.95;1.15;;;19.00;36.80;;;;;;5922702;24;20519;-86
2023/03/08 20:08:37;;;;;;;3.20;1.25;;;19.00;36.80;;;;;;5923377;24;20162;-86
2023/03/08 20:11:05;;;;;;;8.60;1.60;;;19.00;36.70;;;;;;5947156;24;20167;-85
2023/03/08 20:13:43;;;;;;;2.95;1.13;;;19.00;36.70;;;;;;5924268;24;20183;-86
2023/03/08 20:16:17;;;;;;;6.00;1.50;;;19.00;36.70;;;;;;5923338;24;20199;-85
2023/03/08 20:18:44;;;;;;;10.38;1.40;;;19.00;36.80;;;;;;5970213;24;20193;-86
2023/03/08 20:21:20;;;;;;;3.35;1.40;;;19.00;36.80;;;;;;5945310;24;20163;-86
2023/03/08 20:23:53;;;;;;;6.97;1.17;;;19.00;36.50;;;;;;5968622;24;20197;-86
2023/03/08 20:26:27;;;;;;;5.07;1.30;;;19.00;36.50;;;;;;5963065;24;20531;-85
2023/03/08 20:28:55;;;;;;;4.35;1.48;;;19.00;36.50;;;;;;6027038;23;20167;-85
2023/03/08 20:31:21;;;;;;;4.30;1.70;;;19.00;37.20;;;;;;6065900;23;20148;-86
2023/03/08 20:33:46;;;;;;;5.55;1.30;;;19.00;36.60;;;;;;6090276;23;20175;-85
2023/03/08 20:36:16;;;;;;;3.58;0.90;;;19.00;36.40;;;;;;6065720;23;20185;-86
2023/03/08 20:38:44;;;;;;;2.50;1.40;;;18.90;36.60;;;;;;6082340;23;20177;-86
2023/03/08 20:41:17;;;;;;;3.17;1.42;;;18.90;36.30;;;;;;6177902;23;20246;-85
2023/03/08 20:43:45;;;;;;;4.15;1.35;;;19.00;36.30;;;;;;6178944;23;20149;-86
2023/03/08 20:46:15;;;;;;;3.35;1.17;;;19.00;36.30;;;;;;6181910;23;20184;-88
2023/03/08 20:48:45;;;;;;;1.90;1.00;;;18.90;36.40;;;;;;6208910;23;20149;-86
2023/03/08 20:51:12;;;;;;;5.50;1.40;;;18.90;36.30;;;;;;6207456;23;20542;-87
2023/03/08 20:53:43;;;;;;;1.77;1.27;;;18.90;36.30;;;;;;6207908;23;20146;-86
2023/03/08 20:56:12;;;;;;;6.20;1.33;;;18.90;36.90;;;;;;6222386;23;20186;-86
2023/03/08 20:58:42;;;;;;;4.55;1.25;;;18.90;36.10;;;;;;6172583;23;20154;-85
2023/03/08 21:01:20;;;;;;;4.22;1.00;;;18.90;35.90;;;;;;6171724;23;20150;-86
2023/03/08 21:03:48;;;;;;;2.72;1.05;;;18.90;36.00;;;;;;6172651;23;20185;-85
2023/03/08 21:06:17;;;;;;;3.10;1.10;;;18.90;36.00;;;;;;6173343;23;20233;-85
2023/03/08 21:08:43;;;;;;;3.00;1.27;;;18.90;35.90;;;;;;6167172;23;20159;-86
2023/03/08 21:11:13;;;;;;;1.85;1.15;;;18.90;35.70;;;;;;6168131;23;20215;-85
2023/03/08 21:13:44;;;;;;;2.08;0.90;;;18.90;35.90;;;;;;6167290;23;20147;-87
2023/03/08 21:16:11;;;;;;;3.08;1.15;;;18.90;35.80;;;;;;6137020;23;20187;-86
2023/03/08 21:18:38;;;;;;;2.83;1.25;;;18.90;35.80;;;;;;6113105;23;20159;-87
2023/03/08 21:21:07;;;;;;;3.97;1.20;;;18.90;35.60;;;;;;6136201;23;20158;-86
2023/03/08 21:23:40;;;;;;;2.20;1.27;;;18.90;35.60;;;;;;6111734;23;20140;-86
2023/03/08 21:26:07;;;;;;;2.15;1.33;;;18.80;35.50;;;;;;6116785;23;20156;-87
2023/03/08 21:28:35;;;;;;;2.95;1.27;;;18.80;35.30;;;;;;6146648;23;20168;-86
2023/03/08 21:31:07;;;;;;;3.50;1.33;;;18.80;35.30;;;;;;6147281;23;20158;-86
2023/03/08 21:33:34;;;;;;;2.58;1.45;;;18.80;35.10;;;;;;6170974;23;20181;-86
2023/03/08 21:36:03;;;;;;;2.63;1.30;;;18.90;35.30;;;;;;6170700;23;20189;-87
2023/03/08 21:38:35;;;;;;;2.03;1.13;;;18.90;35.00;;;;;;6145054;23;20153;-86
2023/03/08 21:41:02;;;;;;;2.85;1.38;;;18.80;35.10;;;;;;6195206;23;20146;-86
2023/03/08 21:43:30;;;;;;;2.72;1.42;;;18.80;35.10;;;;;;6171171;23;20143;-86
2023/03/08 21:46:03;;;;;;;1.77;1.20;;;18.70;34.90;;;;;;6184700;23;20161;-88
2023/03/08 21:48:32;;;;;;;1.50;1.20;;;18.80;34.90;;;;;;6206797;23;20152;-87
2023/03/08 21:50:57;;;;;;;1.80;1.42;;;18.80;34.80;;;;;;6206802;23;20151;-86
2023/03/08 21:53:23;;;;;;;2.20;1.33;;;18.80;34.80;;;;;;6230723;23;20150;-86
2023/03/08 21:55:49;;;;;;;2.20;1.20;;;18.80;34.80;;;;;;6230410;23;20181;-86
2023/03/08 21:58:17;;;;;;;1.02;0.90;;;18.80;34.70;;;;;;6205544;23;20149;-87
2023/03/08 22:00:42;;;;;;;3.85;1.20;;;18.80;34.80;;;;;;6202428;23;20157;-87
2023/03/08 22:03:08;;;;;;;2.90;1.30;;;18.70;34.80;;;;;;6204219;22;20196;-86
2023/03/08 22:05:34;;;;;;;1.55;0.93;;;18.80;35.20;;;;;;6254998;22;20248;-88
2023/03/08 22:08:04;;;;;;;2.45;1.02;;;18.70;35.50;;;;;;6254593;22;20144;-87
2023/03/08 22:10:30;;;;;;;2.47;1.60;;;18.70;35.80;;;;;;6255190;22;20172;-86
2023/03/08 22:12:56;;;;;;;2.03;1.10;;;18.60;35.90;;;;;;6255062;22;20222;-87
2023/03/08 22:15:23;;;;;;;2.28;1.10;;;18.60;36.00;;;;;;6254416;22;20173;-87
2023/03/08 22:17:50;;;;;;;3.30;1.20;;;18.60;35.90;;;;;;6254541;22;20243;-88
2023/03/08 22:20:20;;;;;;;2.85;1.30;;;18.60;35.90;;;;;;6254761;22;20156;-88
2023/03/08 22:22:48;;;;;;;3.47;1.20;;;18.60;35.90;;;;;;6230082;22;20137;-87
2023/03/08 22:25:14;;;;;;;1.60;1.20;;;18.60;35.90;;;;;;6228931;22;20156;-86
2023/03/08 22:27:39;;;;;;;2.78;1.35;;;18.50;35.90;;;;;;6254182;22;20216;-87
2023/03/08 22:30:09;;;;;;;2.65;1.35;;;18.50;36.00;;;;;;6229488;22;20152;-86
2023/03/08 22:32:38;;;;;;;2.08;1.20;;;18.50;36.00;;;;;;6206494;22;20141;-87
2023/03/08 22:35:08;;;;;;;1.85;1.23;;;18.50;36.00;;;;;;6206352;22;20251;-85
2023/03/08 22:37:34;;;;;;;4.13;1.40;;;18.50;36.10;;;;;;6231714;22;20569;-86
2023/03/08 22:40:01;;;;;;;2.53;1.20;;;18.50;36.10;;;;;;6206234;22;20190;-86
2023/03/08 22:42:27;;;;;;;2.33;1.25;;;18.50;36.00;;;;;;6206854;22;20137;-86
2023/03/08 22:44:58;;;;;;;1.70;1.30;;;18.50;35.80;;;;;;6206141;22;20137;-87
2023/03/08 22:47:25;;;;;;;2.08;1.20;;;18.50;35.70;;;;;;6231543;22;20221;-88
2023/03/08 22:49:52;;;;;;;1.58;1.20;;;18.50;35.70;;;;;;6232096;22;20126;-86
2023/03/08 22:52:18;;;;;;;1.40;1.08;;;18.50;35.80;;;;;;6205941;22;20483;-86
2023/03/08 22:54:45;;;;;;;1.67;1.10;;;18.50;35.80;;;;;;6206324;22;20184;-86
2023/03/08 22:57:15;;;;;;;3.80;1.35;;;18.40;35.80;;;;;;6206569;22;20170;-87
2023/03/08 22:59:44;;;;;;;2.45;1.52;;;18.40;35.90;;;;;;6257395;22;20125;-86
2023/03/08 23:02:10;;;;;;;1.25;1.00;;;18.40;36.00;;;;;;6213353;22;20246;-87
2023/03/08 23:04:40;;;;;;;1.83;1.27;;;18.40;36.00;;;;;;6231441;22;20184;-87
2023/03/08 23:07:06;;;;;;;1.83;1.30;;;18.40;36.10;;;;;;6281978;22;20141;-87
2023/03/08 23:09:41;;;;;;;2.53;1.40;;;18.40;36.20;;;;;;6231718;22;20141;-86
2023/03/08 23:12:07;;;;;;;2.33;1.23;;;18.40;36.20;;;;;;6257518;22;20167;-87
2023/03/08 23:14:34;;;;;;;2.20;1.40;;;18.30;36.20;;;;;;6281761;22;20565;-87
2023/03/08 23:17:00;;;;;;;3.75;1.38;;;18.30;36.20;;;;;;6231441;22;20169;-87
2023/03/08 23:19:26;;;;;;;1.33;1.23;;;18.30;36.20;;;;;;6256753;22;20235;-87
2023/03/08 23:21:51;;;;;;;1.65;1.45;;;18.20;36.10;;;;;;6255627;22;20129;-86
2023/03/08 23:24:17;;;;;;;2.80;1.33;;;18.30;36.20;;;;;;6231376;22;20161;-88
2023/03/08 23:26:45;;;;;;;1.80;1.23;;;18.30;36.10;;;;;;6231139;22;20260;-87
2023/03/08 23:29:13;;;;;;;1.67;1.38;;;18.30;36.20;;;;;;6231575;22;20487;-87
2023/03/08 23:31:41;;;;;;;1.75;1.30;;;18.30;36.20;;;;;;6231222;22;20145;-87
2023/03/08 23:34:09;;;;;;;1.50;1.20;;;18.30;36.10;;;;;;6232637;22;20557;-87
2023/03/08 23:36:37;;;;;;;2.95;1.45;;;18.30;36.20;;;;;;6232665;22;20165;-86
2023/03/08 23:39:04;;;;;;;3.10;1.13;;;18.30;36.20;;;;;;6231553;22;20175;-86
2023/03/08 23:41:31;;;;;;;2.85;1.40;;;18.30;36.20;;;;;;6231184;22;20145;-88
2023/03/08 23:43:59;;;;;;;3.85;1.40;;;18.20;36.20;;;;;;6231803;22;20141;-86
2023/03/08 23:46:27;;;;;;;1.70;1.20;;;18.30;36.30;;;;;;6255681;22;20139;-85
2023/03/08 23:48:56;;;;;;;1.60;1.20;;;18.30;36.30;;;;;;6230480;22;20167;-86
2023/03/08 23:51:24;;;;;;;2.05;1.13;;;18.30;36.30;;;;;;6232512;22;20141;-86
2023/03/08 23:53:52;;;;;;;1.25;1.15;;;18.30;36.40;;;;;;6231056;22;20145;-87
2023/03/08 23:56:29;;;;;;;1.33;1.20;;;18.30;36.30;;;;;;6256104;22;20162;-87
2023/03/08 23:58:58;;;;;;;1.55;1.30;;;18.30;36.30;;;;;;6256861;22;20137;-87
